createdAt,value
2019-05-19T00:00:31.097Z,70.60
2019-05-19T00:04:35.607Z,70.90
2019-05-19T00:08:40.160Z,70.80
2019-05-19T00:12:44.723Z,71.00
2019-05-19T00:16:49.261Z,69.20
2019-05-19T00:20:53.834Z,69.30
2019-05-19T00:24:58.347Z,68.70
2019-05-19T00:29:02.886Z,69.50
2019-05-19T00:33:07.451Z,69.60
2019-05-19T00:37:11.986Z,69.80
2019-05-19T00:41:16.526Z,69.30
2019-05-19T00:45:21.258Z,69.10
2019-05-19T00:49:25.821Z,69.20
2019-05-19T00:53:30.429Z,69.30
2019-05-19T00:57:36.218Z,69.10
2019-05-19T01:01:40.779Z,69.20
2019-05-19T01:05:45.289Z,69.20
2019-05-19T01:09:49.849Z,69.90
2019-05-19T01:13:54.404Z,69.20
2019-05-19T01:17:58.940Z,69.20
2019-05-19T01:22:03.925Z,69.20
2019-05-19T01:26:08.435Z,69.20
2019-05-19T01:30:13.287Z,69.00
2019-05-19T01:34:17.833Z,69.70
2019-05-19T01:38:22.380Z,69.40
2019-05-19T01:42:26.920Z,69.20
2019-05-19T01:46:31.491Z,69.00
2019-05-19T01:50:36.026Z,69.00
2019-05-19T01:54:40.573Z,69.20
2019-05-19T01:58:45.126Z,69.90
2019-05-19T02:02:49.712Z,70.00
2019-05-19T02:06:54.217Z,69.50
2019-05-19T02:10:58.745Z,69.40
2019-05-19T02:15:03.565Z,69.00
2019-05-19T02:19:08.125Z,69.50
2019-05-19T02:23:12.684Z,69.40
2019-05-19T02:27:17.178Z,69.40
2019-05-19T02:31:21.741Z,69.40
2019-05-19T02:39:30.179Z,68.70
2019-05-19T02:43:34.816Z,69.40
2019-05-19T02:47:41.742Z,70.10
2019-05-19T02:51:48.999Z,69.30
2019-05-19T02:55:55.258Z,68.60
2019-05-19T03:00:00.825Z,70.10
2019-05-19T03:04:05.375Z,69.30
2019-05-19T03:08:09.882Z,68.60
2019-05-19T03:12:14.430Z,69.50
2019-05-19T03:16:18.962Z,69.80
2019-05-19T03:20:23.531Z,70.80
2019-05-19T03:24:28.093Z,69.10
2019-05-19T03:28:32.634Z,70.20
2019-05-19T03:32:42.366Z,73.50
2019-05-19T03:36:46.914Z,73.40
2019-05-19T03:40:51.458Z,73.10
2019-05-19T03:44:56.034Z,73.20
2019-05-19T03:49:00.554Z,73.70
2019-05-19T03:53:05.114Z,73.80
2019-05-19T03:57:09.654Z,74.10
2019-05-19T04:01:14.214Z,73.70
2019-05-19T04:05:18.773Z,74.80
2019-05-19T04:09:23.289Z,76.20
2019-05-19T04:13:27.882Z,75.00
2019-05-19T04:17:32.456Z,75.60
2019-05-19T04:21:48.080Z,76.00
2019-05-19T04:25:43.217Z,76.30
2019-05-19T04:29:47.715Z,76.60
2019-05-19T04:33:52.237Z,76.60
2019-05-19T04:37:56.982Z,76.90
2019-05-19T04:42:01.512Z,76.80
2019-05-19T04:46:06.103Z,76.90
2019-05-19T04:50:10.602Z,76.90
2019-05-19T04:54:15.169Z,77.20
2019-05-19T04:58:19.722Z,77.60
2019-05-19T05:02:24.284Z,77.80
2019-05-19T05:06:28.817Z,77.70
2019-05-19T05:10:33.361Z,77.80
2019-05-19T05:14:37.930Z,77.80
2019-05-19T05:18:42.489Z,77.50
2019-05-19T05:22:47.050Z,77.10
2019-05-19T05:26:51.613Z,77.10
2019-05-19T05:30:56.148Z,76.80
2019-05-19T05:35:00.758Z,76.90
2019-05-19T05:39:06.610Z,76.30
2019-05-19T05:43:11.197Z,76.60
2019-05-19T05:47:15.801Z,76.50
2019-05-19T05:51:20.309Z,77.30
2019-05-19T05:55:25.223Z,77.80
2019-05-19T05:59:42.695Z,78.10
2019-05-19T06:03:47.781Z,78.10
2019-05-19T06:07:52.322Z,77.70
2019-05-19T06:11:56.909Z,77.90
2019-05-19T06:16:01.409Z,78.50
2019-05-19T06:20:06.404Z,78.30
2019-05-19T06:24:11.116Z,78.40
2019-05-19T06:28:15.686Z,78.10
2019-05-19T06:32:27.293Z,79.40
2019-05-19T06:36:31.806Z,79.60
2019-05-19T06:40:36.345Z,80.10
2019-05-19T06:44:40.938Z,78.80
2019-05-19T06:48:45.497Z,76.60
2019-05-19T06:52:50.010Z,75.50
2019-05-19T06:56:54.533Z,75.00
2019-05-19T07:00:59.360Z,73.50
2019-05-19T07:05:04.165Z,71.10
2019-05-19T07:09:08.883Z,71.30
2019-05-19T07:13:13.380Z,68.00
2019-05-19T07:17:17.911Z,66.60
2019-05-19T07:21:22.440Z,65.90
2019-05-19T07:25:26.967Z,64.70
2019-05-19T07:29:31.513Z,65.00
2019-05-19T07:33:35.998Z,64.10
2019-05-19T07:37:40.526Z,63.90
2019-05-19T07:41:45.075Z,62.60
2019-05-19T07:45:49.666Z,63.30
2019-05-19T07:49:54.191Z,63.00
2019-05-19T07:53:58.693Z,62.80
2019-05-19T07:58:03.235Z,61.80
2019-05-19T08:02:07.815Z,61.00
2019-05-19T08:06:12.401Z,56.80
2019-05-19T08:14:20.823Z,56.50
2019-05-19T08:18:25.416Z,57.90
2019-05-19T08:22:30.015Z,58.10
2019-05-19T08:26:34.568Z,57.60
2019-05-19T08:30:39.041Z,58.00
2019-05-19T08:34:43.566Z,57.90
2019-05-19T08:38:48.101Z,57.60
2019-05-19T08:42:52.637Z,56.50
2019-05-19T08:46:57.193Z,56.00
2019-05-19T08:51:01.690Z,55.70
2019-05-19T08:55:06.425Z,53.60
2019-05-19T08:59:10.976Z,55.50
2019-05-19T09:03:15.530Z,55.60
2019-05-19T09:07:20.084Z,55.90
2019-05-19T09:11:24.571Z,54.00
2019-05-19T09:15:29.101Z,53.60
2019-05-19T09:19:33.612Z,56.40
2019-05-19T09:23:38.161Z,57.40
2019-05-19T09:27:42.700Z,58.20
2019-05-19T09:31:47.198Z,59.10
2019-05-19T09:35:51.731Z,59.10
2019-05-19T09:39:56.256Z,58.70
2019-05-19T09:44:00.857Z,60.10
2019-05-19T09:48:05.373Z,60.90
2019-05-19T09:52:09.873Z,60.70
2019-05-19T09:56:22.476Z,61.10
2019-05-19T10:00:27.001Z,61.70
2019-05-19T10:04:31.573Z,61.50
2019-05-19T10:08:36.982Z,62.00
2019-05-19T10:12:41.485Z,60.40
2019-05-19T10:16:46.036Z,61.60
2019-05-19T10:20:50.617Z,60.60
2019-05-19T10:25:19.923Z,62.00
2019-05-19T10:29:01.514Z,62.20
2019-05-19T10:33:06.028Z,62.50
2019-05-19T10:37:12.701Z,61.00
2019-05-19T10:41:17.239Z,61.30
2019-05-19T10:45:22.064Z,62.00
2019-05-19T10:49:26.558Z,62.00
2019-05-19T10:53:31.054Z,61.20
2019-05-19T10:57:35.588Z,61.20
2019-05-19T11:01:40.138Z,61.70
2019-05-19T11:05:44.658Z,61.80
2019-05-19T11:09:49.184Z,61.50
2019-05-19T11:13:53.753Z,59.70
2019-05-19T11:17:58.289Z,60.80
2019-05-19T11:22:02.837Z,59.80
2019-05-19T11:26:07.377Z,60.50
2019-05-19T11:30:11.948Z,60.60
2019-05-19T11:34:16.456Z,61.20
2019-05-19T11:38:21.025Z,61.20
2019-05-19T11:42:25.574Z,62.40
2019-05-19T11:46:30.155Z,62.30
2019-05-19T11:50:34.703Z,60.20
2019-05-19T11:54:39.218Z,58.20
2019-05-19T11:58:43.776Z,60.30
2019-05-19T12:02:48.402Z,60.20
2019-05-19T12:06:52.920Z,60.50
2019-05-19T12:10:57.469Z,59.90
2019-05-19T12:15:01.966Z,60.80
2019-05-19T12:19:06.501Z,60.80
2019-05-19T12:23:11.061Z,61.20
2019-05-19T12:27:15.602Z,61.50
2019-05-19T12:31:20.120Z,61.30
2019-05-19T12:35:24.668Z,61.10
2019-05-19T12:39:29.165Z,61.40
2019-05-19T12:43:33.689Z,62.00
2019-05-19T12:47:39.820Z,61.90
2019-05-19T12:51:44.344Z,61.20
2019-05-19T12:55:48.879Z,61.10
2019-05-19T12:59:53.381Z,60.00
2019-05-19T13:03:57.921Z,62.00
2019-05-19T13:08:02.466Z,62.50
2019-05-19T13:12:06.999Z,61.00
2019-05-19T13:16:11.493Z,60.30
2019-05-19T13:20:16.141Z,61.10
2019-05-19T13:24:20.689Z,61.30
2019-05-19T13:28:25.242Z,61.50
2019-05-19T13:32:29.777Z,61.60
2019-05-19T13:36:34.322Z,61.20
2019-05-19T13:40:38.857Z,60.00
2019-05-19T13:44:43.409Z,58.30
2019-05-19T13:48:47.960Z,59.80
2019-05-19T13:52:52.503Z,57.40
2019-05-19T13:57:11.245Z,58.60
2019-05-19T14:01:03.253Z,56.30
2019-05-19T14:05:07.787Z,55.40
2019-05-19T14:09:15.232Z,58.20
2019-05-19T14:13:18.728Z,57.30
2019-05-19T14:17:23.214Z,56.90
2019-05-19T14:21:27.820Z,57.00
2019-05-19T14:25:32.348Z,58.60
2019-05-19T14:29:36.936Z,57.50
2019-05-19T14:33:41.506Z,57.40
2019-05-19T14:37:46.053Z,57.90
2019-05-19T14:41:54.773Z,57.80
2019-05-19T14:45:59.402Z,58.20
2019-05-19T14:50:03.976Z,57.40
2019-05-19T14:54:08.567Z,56.40
2019-05-19T14:58:13.080Z,55.50
2019-05-19T15:02:19.947Z,55.20
2019-05-19T15:06:23.944Z,56.30
2019-05-19T15:10:28.492Z,55.30
2019-05-19T15:14:33.045Z,56.40
2019-05-19T15:18:38.397Z,56.50
2019-05-19T15:22:43.126Z,57.40
2019-05-19T15:26:47.686Z,54.60
2019-05-19T15:30:52.313Z,56.50
2019-05-19T15:34:56.950Z,55.30
2019-05-19T15:39:01.608Z,55.50
2019-05-19T15:43:06.172Z,54.90
2019-05-19T15:47:10.920Z,55.30
2019-05-19T15:51:27.573Z,56.50
2019-05-19T15:55:21.654Z,55.90
2019-05-19T15:59:26.198Z,56.60
2019-05-19T16:03:30.754Z,56.40
2019-05-19T16:07:35.311Z,56.50
2019-05-19T16:11:39.870Z,56.00
2019-05-19T16:15:44.421Z,55.50
2019-05-19T16:19:48.937Z,56.10
2019-05-19T16:23:53.485Z,55.90
2019-05-19T16:27:58.048Z,55.30
2019-05-19T16:32:02.622Z,56.50
2019-05-19T16:36:07.955Z,56.50
2019-05-19T16:40:12.696Z,57.00
2019-05-19T16:44:17.269Z,56.90
2019-05-19T16:48:23.466Z,57.30
2019-05-19T16:52:28.169Z,56.90
2019-05-19T16:56:37.948Z,56.00
2019-05-19T17:00:42.487Z,54.70
2019-05-19T17:04:47.010Z,55.80
2019-05-19T17:08:51.534Z,52.70
2019-05-19T17:12:56.194Z,53.70
2019-05-19T17:17:00.692Z,56.00
2019-05-19T17:21:05.230Z,53.30
2019-05-19T17:25:09.866Z,53.50
2019-05-19T17:29:14.388Z,55.10
2019-05-19T17:33:18.991Z,55.10
2019-05-19T17:37:23.494Z,56.20
2019-05-19T17:41:28.009Z,56.60
2019-05-19T17:45:32.625Z,57.30
2019-05-19T17:49:37.141Z,57.20
2019-05-19T17:53:42.017Z,57.70
2019-05-19T17:57:47.136Z,57.40
2019-05-19T18:01:51.657Z,57.10
2019-05-19T18:05:56.212Z,57.00
2019-05-19T18:10:00.726Z,57.20
2019-05-19T18:14:05.250Z,56.90
2019-05-19T18:18:09.752Z,57.10
2019-05-19T18:22:14.389Z,57.10
2019-05-19T18:26:18.912Z,57.20
2019-05-19T18:30:23.442Z,57.50
2019-05-19T18:34:27.991Z,57.50
2019-05-19T18:38:32.481Z,57.40
2019-05-19T18:42:37.030Z,57.40
2019-05-19T18:46:41.597Z,57.60
2019-05-19T18:50:46.133Z,57.90
2019-05-19T18:54:51.081Z,58.10
2019-05-19T18:58:55.605Z,58.30
2019-05-19T19:03:00.136Z,58.30
2019-05-19T19:07:04.695Z,58.50
2019-05-19T19:11:09.241Z,59.10
2019-05-19T19:15:13.741Z,58.90
2019-05-19T19:19:18.261Z,58.80
2019-05-19T19:23:22.912Z,59.10
2019-05-19T19:27:27.485Z,59.90
2019-05-19T19:31:32.065Z,59.80
2019-05-19T19:35:39.139Z,60.00
2019-05-19T19:39:42.780Z,60.80
2019-05-19T19:43:47.442Z,61.80
2019-05-19T19:47:52.018Z,60.90
2019-05-19T19:51:56.557Z,60.90
2019-05-19T19:56:01.065Z,61.10
2019-05-19T20:00:17.929Z,61.60
2019-05-19T20:04:12.622Z,62.30
2019-05-19T20:08:17.197Z,61.50
2019-05-19T20:12:22.594Z,61.90
2019-05-19T20:16:27.146Z,62.10
2019-05-19T20:20:31.707Z,61.80
2019-05-19T20:24:36.304Z,62.10
2019-05-19T20:28:40.888Z,62.00
2019-05-19T20:32:45.469Z,63.10
2019-05-19T20:36:49.987Z,62.50
2019-05-19T20:40:54.572Z,62.10
2019-05-19T20:44:59.150Z,62.90
2019-05-19T20:49:03.719Z,62.40
2019-05-19T20:53:08.294Z,62.30
2019-05-19T20:57:12.847Z,62.30
2019-05-19T21:01:17.401Z,62.50
2019-05-19T21:05:21.949Z,62.40
2019-05-19T21:09:26.535Z,62.50
2019-05-19T21:13:31.080Z,62.90
2019-05-19T21:17:35.594Z,63.30
2019-05-19T21:21:40.185Z,63.60
2019-05-19T21:25:44.737Z,64.40
2019-05-19T21:29:49.310Z,66.90
2019-05-19T21:33:53.858Z,65.00
2019-05-19T21:37:58.418Z,63.90
2019-05-19T21:42:02.973Z,63.60
2019-05-19T21:46:07.585Z,64.00
2019-05-19T21:50:12.168Z,65.00
2019-05-19T21:54:16.692Z,64.20
2019-05-19T21:58:21.254Z,63.30
2019-05-19T22:02:25.805Z,63.80
2019-05-19T22:06:32.069Z,64.10
2019-05-19T22:10:36.642Z,64.40
2019-05-19T22:14:41.180Z,64.20
2019-05-19T22:18:45.750Z,64.10
2019-05-19T22:22:50.306Z,64.80
2019-05-19T22:26:54.864Z,67.00
2019-05-19T22:30:59.442Z,67.60
2019-05-19T22:35:03.963Z,64.60
2019-05-19T22:39:08.517Z,65.30
2019-05-19T22:43:13.106Z,65.90
2019-05-19T22:47:17.777Z,66.50
2019-05-19T22:51:22.855Z,66.10
2019-05-19T22:55:27.553Z,65.60
2019-05-19T22:59:32.118Z,65.50
2019-05-19T23:03:36.682Z,65.20
2019-05-19T23:07:41.237Z,65.20
2019-05-19T23:11:45.788Z,65.30
2019-05-19T23:15:50.356Z,66.10
2019-05-19T23:19:54.954Z,66.00
2019-05-19T23:23:59.613Z,67.90
2019-05-19T23:28:04.305Z,68.10
2019-05-19T23:32:08.892Z,67.70
2019-05-19T23:36:13.455Z,68.20
2019-05-19T23:40:17.992Z,67.30
2019-05-19T23:44:22.588Z,66.90
2019-05-19T23:48:27.170Z,67.90
2019-05-19T23:52:31.760Z,66.90
2019-05-19T23:56:36.309Z,66.90
